createdAt,value
2023-01-15T00:02:27.824Z,9.06
2023-01-15T00:05:49.768Z,9.06
2023-01-15T00:09:16.331Z,9.11
2023-01-15T00:12:37.735Z,9.14
2023-01-15T00:16:05.715Z,9.14
2023-01-15T00:19:27.469Z,9.16
2023-01-15T00:22:48.689Z,9.17
2023-01-15T00:26:31.571Z,9.19
2023-01-15T00:29:53.103Z,9.20
2023-01-15T00:33:15.712Z,9.23
2023-01-15T00:36:37.913Z,9.24
2023-01-15T00:40:01.355Z,9.25
2023-01-15T00:43:23.688Z,9.28
2023-01-15T00:46:45.159Z,9.28
2023-01-15T00:50:11.062Z,9.30
2023-01-15T00:53:33.115Z,9.33
2023-01-15T00:56:55.310Z,9.35
2023-01-15T01:00:17.631Z,9.38
2023-01-15T01:03:39.286Z,9.40
2023-01-15T01:07:02.433Z,9.40
2023-01-15T01:10:24.118Z,9.43
2023-01-15T01:13:46.862Z,9.44
2023-01-15T01:17:08.615Z,9.48
2023-01-15T01:20:30.887Z,9.52
2023-01-15T01:23:54.122Z,9.56
2023-01-15T01:27:18.666Z,9.61
2023-01-15T01:30:40.213Z,9.61
2023-01-15T01:34:02.234Z,9.61
2023-01-15T01:37:24.097Z,9.61
2023-01-15T01:40:47.446Z,9.60
2023-01-15T01:44:25.000Z,9.62
2023-01-15T01:47:47.667Z,9.67
2023-01-15T01:51:10.060Z,9.72
2023-01-15T01:54:35.121Z,9.72
2023-01-15T01:58:01.841Z,9.77
2023-01-15T02:01:26.505Z,9.79
2023-01-15T02:04:48.752Z,9.77
2023-01-15T02:08:10.737Z,9.81
2023-01-15T02:11:34.146Z,9.82
2023-01-15T02:15:05.453Z,9.82
2023-01-15T02:18:36.250Z,9.85
2023-01-15T02:22:11.548Z,9.88
2023-01-15T02:25:41.006Z,9.92
2023-01-15T02:29:06.298Z,9.92
2023-01-15T02:32:35.019Z,9.94
2023-01-15T02:36:01.047Z,9.95
2023-01-15T02:39:30.160Z,9.95
2023-01-15T02:42:55.798Z,9.96
2023-01-15T02:46:22.138Z,9.96
2023-01-15T02:49:46.493Z,9.97
2023-01-15T02:53:15.598Z,9.97
2023-01-15T02:56:39.905Z,9.92
2023-01-15T03:00:06.765Z,9.93
2023-01-15T03:03:38.290Z,9.93
2023-01-15T03:07:07.763Z,9.93
2023-01-15T03:10:39.507Z,9.94
2023-01-15T03:14:06.315Z,9.95
2023-01-15T03:17:36.572Z,9.94
2023-01-15T03:21:05.029Z,9.92
2023-01-15T03:24:33.104Z,9.93
2023-01-15T03:27:58.655Z,9.92
2023-01-15T03:31:22.653Z,9.92
2023-01-15T03:34:48.978Z,9.92
2023-01-15T03:38:16.530Z,9.92
2023-01-15T03:41:49.943Z,9.93
2023-01-15T03:45:16.720Z,9.95
2023-01-15T03:48:45.703Z,9.92
2023-01-15T03:52:14.744Z,9.91
2023-01-15T03:55:45.295Z,9.89
2023-01-15T03:59:13.965Z,9.84
2023-01-15T04:02:49.564Z,9.87
2023-01-15T04:06:13.327Z,9.87
2023-01-15T04:09:39.120Z,9.87
2023-01-15T04:13:03.879Z,9.87
2023-01-15T04:16:28.085Z,9.68
2023-01-15T04:19:49.671Z,9.37
2023-01-15T04:23:10.879Z,9.19
2023-01-15T04:26:32.113Z,9.02
2023-01-15T04:29:55.177Z,8.95
2023-01-15T04:33:16.376Z,8.77
2023-01-15T04:36:37.979Z,8.64
2023-01-15T04:39:59.618Z,8.51
2023-01-15T04:43:38.545Z,8.50
2023-01-15T04:47:02.016Z,8.35
2023-01-15T04:50:24.725Z,8.07
2023-01-15T04:53:46.191Z,7.86
2023-01-15T04:57:08.419Z,7.71
2023-01-15T05:00:29.800Z,7.60
2023-01-15T05:03:52.506Z,7.54
2023-01-15T05:07:14.255Z,7.42
2023-01-15T05:10:35.550Z,7.42
2023-01-15T05:13:57.535Z,7.47
2023-01-15T05:17:19.009Z,7.50
2023-01-15T05:20:42.262Z,7.50
2023-01-15T05:24:06.471Z,7.47
2023-01-15T05:27:27.998Z,7.45
2023-01-15T05:30:49.287Z,7.46
2023-01-15T05:34:11.044Z,7.46
2023-01-15T05:37:34.119Z,7.41
2023-01-15T05:40:56.151Z,7.39
2023-01-15T05:44:20.020Z,7.35
2023-01-15T05:47:41.218Z,7.33
2023-01-15T05:51:03.274Z,7.30
2023-01-15T05:54:28.427Z,7.31
2023-01-15T05:57:50.356Z,7.29
2023-01-15T06:01:12.385Z,7.27
2023-01-15T06:04:33.975Z,7.28
2023-01-15T06:07:55.889Z,7.25
2023-01-15T06:11:18.976Z,7.25
2023-01-15T06:14:40.318Z,7.23
2023-01-15T06:18:02.043Z,7.20
2023-01-15T06:21:23.852Z,7.18
2023-01-15T06:24:45.071Z,7.17
2023-01-15T06:28:09.251Z,7.15
2023-01-15T06:31:32.535Z,7.16
2023-01-15T06:34:54.226Z,7.17
2023-01-15T06:38:15.666Z,7.16
2023-01-15T06:41:54.501Z,7.14
2023-01-15T06:45:35.117Z,7.13
2023-01-15T06:48:56.621Z,7.12
2023-01-15T06:52:18.342Z,7.11
2023-01-15T06:55:39.925Z,7.09
2023-01-15T06:59:01.254Z,7.07
2023-01-15T07:02:24.171Z,7.05
2023-01-15T07:05:45.727Z,7.05
2023-01-15T07:09:07.797Z,7.04
2023-01-15T07:12:30.479Z,7.04
2023-01-15T07:15:52.178Z,7.00
2023-01-15T07:19:15.364Z,7.00
2023-01-15T07:22:37.025Z,7.00
2023-01-15T07:25:58.290Z,6.99
2023-01-15T07:29:19.834Z,6.98
2023-01-15T07:32:41.249Z,6.98
2023-01-15T07:36:05.353Z,6.94
2023-01-15T07:39:26.555Z,6.94
2023-01-15T07:43:05.693Z,6.93
2023-01-15T07:46:44.555Z,6.91
2023-01-15T07:50:07.648Z,6.92
2023-01-15T07:53:30.846Z,6.90
2023-01-15T07:56:53.959Z,6.90
2023-01-15T08:00:20.871Z,6.90
2023-01-15T08:03:42.679Z,6.93
2023-01-15T08:07:05.114Z,6.94
2023-01-15T08:10:27.976Z,6.94
2023-01-15T08:14:07.251Z,6.97
2023-01-15T08:17:28.781Z,6.96
2023-01-15T08:20:52.700Z,6.96
2023-01-15T08:24:14.482Z,6.96
2023-01-15T08:27:37.866Z,6.97
2023-01-15T08:30:59.539Z,7.00
2023-01-15T08:34:21.271Z,7.01
2023-01-15T08:37:43.447Z,7.02
2023-01-15T08:41:07.424Z,7.02
2023-01-15T08:44:30.322Z,7.07
2023-01-15T08:47:55.493Z,7.08
2023-01-15T08:51:17.135Z,7.08
2023-01-15T08:54:39.601Z,7.08
2023-01-15T08:58:02.499Z,7.06
2023-01-15T09:01:25.765Z,7.08
2023-01-15T09:04:47.526Z,7.09
2023-01-15T09:08:09.414Z,7.13
2023-01-15T09:11:30.774Z,7.15
2023-01-15T09:14:57.478Z,7.17
2023-01-15T09:18:25.933Z,7.15
2023-01-15T09:21:47.214Z,7.18
2023-01-15T09:25:09.713Z,7.18
2023-01-15T09:28:31.219Z,7.21
2023-01-15T09:31:52.920Z,7.21
2023-01-15T09:35:16.652Z,7.25
2023-01-15T09:38:38.293Z,7.29
2023-01-15T09:42:16.044Z,7.30
2023-01-15T09:45:44.245Z,7.32
2023-01-15T09:49:22.000Z,7.35
2023-01-15T09:53:06.938Z,7.38
2023-01-15T09:56:32.484Z,7.40
2023-01-15T10:00:00.965Z,7.42
2023-01-15T10:03:32.023Z,7.42
2023-01-15T10:06:59.974Z,7.45
2023-01-15T10:10:30.087Z,7.49
2023-01-15T10:13:57.095Z,7.51
2023-01-15T10:17:29.976Z,7.57
2023-01-15T10:21:08.396Z,7.57
2023-01-15T10:24:38.835Z,7.58
2023-01-15T10:28:13.254Z,7.58
2023-01-15T10:31:50.548Z,7.60
2023-01-15T10:35:41.055Z,7.59
2023-01-15T10:39:07.492Z,7.63
2023-01-15T10:42:37.464Z,7.65
2023-01-15T10:46:02.749Z,7.70
2023-01-15T10:49:29.404Z,7.72
2023-01-15T10:52:58.807Z,7.72
2023-01-15T10:56:30.106Z,7.73
2023-01-15T10:59:57.696Z,7.74
2023-01-15T11:03:24.235Z,7.78
2023-01-15T11:06:45.716Z,7.79
2023-01-15T11:10:12.147Z,7.79
2023-01-15T11:13:51.114Z,7.85
2023-01-15T11:17:33.435Z,7.92
2023-01-15T11:20:56.344Z,7.94
2023-01-15T11:24:19.490Z,7.93
2023-01-15T11:27:49.293Z,7.93
2023-01-15T11:31:12.608Z,7.96
2023-01-15T11:34:36.862Z,7.94
2023-01-15T11:38:15.962Z,7.94
2023-01-15T11:41:51.362Z,7.93
2023-01-15T11:45:36.159Z,7.96
2023-01-15T11:49:15.822Z,7.96
2023-01-15T11:52:39.999Z,7.95
2023-01-15T11:56:07.315Z,7.99
2023-01-15T11:59:29.099Z,8.02
2023-01-15T12:02:53.235Z,8.03
2023-01-15T12:06:17.114Z,8.07
2023-01-15T12:10:01.091Z,8.11
2023-01-15T12:13:33.819Z,8.11
2023-01-15T12:17:03.653Z,8.14
2023-01-15T12:20:30.749Z,8.14
2023-01-15T12:24:17.109Z,8.13
2023-01-15T12:27:53.866Z,8.14
2023-01-15T12:31:22.132Z,8.14
2023-01-15T12:34:50.351Z,8.12
2023-01-15T12:38:19.253Z,8.15
2023-01-15T12:42:01.666Z,8.17
2023-01-15T12:45:28.203Z,8.19
2023-01-15T12:48:55.480Z,8.13
2023-01-15T12:52:24.315Z,8.16
2023-01-15T12:55:53.119Z,8.18
2023-01-15T12:59:21.674Z,8.17
2023-01-15T13:03:02.956Z,8.17
2023-01-15T13:06:28.741Z,8.16
2023-01-15T13:09:57.279Z,8.14
2023-01-15T13:13:22.886Z,8.09
2023-01-15T13:16:51.885Z,8.09
2023-01-15T13:20:37.786Z,8.08
2023-01-15T13:24:21.054Z,8.09
2023-01-15T13:27:55.284Z,8.11
2023-01-15T13:31:37.093Z,8.14
2023-01-15T13:35:06.718Z,8.15
2023-01-15T13:38:32.196Z,8.07
2023-01-15T13:42:14.111Z,8.08
2023-01-15T13:45:38.740Z,8.06
2023-01-15T13:49:00.452Z,8.05
2023-01-15T13:52:25.910Z,8.02
2023-01-15T13:55:53.762Z,8.04
2023-01-15T14:02:53.412Z,8.01
2023-01-15T14:06:15.021Z,8.00
2023-01-15T14:09:36.341Z,8.00
2023-01-15T14:13:21.446Z,7.97
2023-01-15T14:16:54.803Z,8.00
2023-01-15T14:20:38.939Z,7.95
2023-01-15T14:24:23.420Z,7.95
2023-01-15T14:27:57.693Z,7.93
2023-01-15T14:31:35.224Z,7.95
2023-01-15T14:34:59.073Z,8.02
2023-01-15T14:38:25.447Z,8.00
2023-01-15T14:42:00.736Z,8.03
2023-01-15T14:45:27.922Z,8.00
2023-01-15T14:48:49.780Z,7.95
2023-01-15T14:52:12.326Z,7.97
2023-01-15T14:55:39.591Z,7.97
2023-01-15T14:59:09.295Z,7.98
2023-01-15T15:02:37.418Z,7.93
2023-01-15T15:05:59.117Z,7.94
2023-01-15T15:09:30.507Z,7.96
2023-01-15T15:13:00.353Z,7.94
2023-01-15T15:16:27.952Z,7.94
2023-01-15T15:19:54.445Z,7.95
2023-01-15T15:23:23.459Z,7.95
2023-01-15T15:26:45.625Z,7.91
2023-01-15T15:30:14.182Z,7.91
2023-01-15T15:33:40.110Z,7.88
2023-01-15T15:37:05.775Z,7.90
2023-01-15T15:40:33.850Z,7.90
2023-01-15T15:44:16.433Z,7.85
2023-01-15T15:47:58.996Z,7.80
2023-01-15T15:51:28.673Z,7.76
2023-01-15T15:55:00.138Z,7.78
2023-01-15T15:58:26.703Z,7.78
2023-01-15T16:01:48.646Z,7.76
2023-01-15T16:05:24.634Z,7.67
2023-01-15T16:08:53.525Z,7.62
2023-01-15T16:12:16.941Z,7.60
2023-01-15T16:15:41.487Z,7.55
2023-01-15T16:19:04.602Z,7.47
2023-01-15T16:22:27.628Z,7.42
2023-01-15T16:26:00.426Z,7.41
2023-01-15T16:29:26.004Z,7.38
2023-01-15T16:32:49.316Z,7.37
2023-01-15T16:36:11.148Z,7.32
2023-01-15T16:39:41.335Z,7.32
2023-01-15T16:43:09.637Z,7.31
2023-01-15T16:46:34.000Z,7.30
2023-01-15T16:50:16.348Z,7.22
2023-01-15T16:53:41.941Z,7.17
2023-01-15T16:57:06.534Z,7.13
2023-01-15T17:00:32.819Z,7.13
2023-01-15T17:03:54.763Z,7.12
2023-01-15T17:07:20.763Z,7.12
2023-01-15T17:10:53.403Z,7.08
2023-01-15T17:14:21.762Z,7.04
2023-01-15T17:17:44.270Z,6.99
2023-01-15T17:21:07.344Z,6.97
2023-01-15T17:24:28.922Z,6.91
2023-01-15T17:27:50.900Z,6.84
2023-01-15T17:31:26.611Z,6.80
2023-01-15T17:34:49.062Z,6.76
2023-01-15T17:38:13.925Z,6.78
2023-01-15T17:41:35.575Z,6.77
2023-01-15T17:44:57.390Z,6.78
2023-01-15T17:48:20.577Z,6.79
2023-01-15T17:51:43.207Z,6.79
2023-01-15T17:55:22.389Z,6.81
2023-01-15T17:59:01.312Z,6.77
2023-01-15T18:02:40.597Z,6.76
2023-01-15T18:06:04.042Z,6.73
2023-01-15T18:09:25.986Z,6.75
2023-01-15T18:12:47.895Z,6.74
2023-01-15T18:16:10.377Z,6.75
2023-01-15T18:19:31.893Z,6.74
2023-01-15T18:22:54.888Z,6.74
2023-01-15T18:26:16.963Z,6.75
2023-01-15T18:29:40.222Z,6.71
2023-01-15T18:33:02.847Z,6.73
2023-01-15T18:36:24.559Z,6.72
2023-01-15T18:39:47.661Z,6.69
2023-01-15T18:43:27.799Z,6.73
2023-01-15T18:46:52.735Z,6.74
2023-01-15T18:50:14.146Z,6.72
2023-01-15T18:53:35.985Z,6.72
2023-01-15T18:56:59.191Z,6.73
2023-01-15T19:00:21.819Z,6.74
2023-01-15T19:03:43.508Z,6.74
2023-01-15T19:07:05.387Z,6.72
2023-01-15T19:10:27.414Z,6.74
2023-01-15T19:14:10.281Z,6.73
2023-01-15T19:17:49.223Z,6.74
2023-01-15T19:21:12.833Z,6.66
2023-01-15T19:24:34.180Z,6.64
2023-01-15T19:27:56.666Z,6.65
2023-01-15T19:31:39.046Z,6.68
2023-01-15T19:35:00.902Z,6.68
2023-01-15T19:38:22.379Z,6.66
2023-01-15T19:42:01.490Z,6.66
2023-01-15T19:45:41.041Z,6.70
2023-01-15T19:49:21.078Z,6.72
2023-01-15T19:52:42.638Z,6.74
2023-01-15T19:56:04.892Z,6.78
2023-01-15T19:59:26.775Z,6.72
2023-01-15T20:02:48.325Z,6.74
2023-01-15T20:06:11.849Z,6.77
2023-01-15T20:09:33.332Z,6.79
2023-01-15T20:13:12.626Z,6.84
2023-01-15T20:16:34.420Z,6.85
2023-01-15T20:19:56.487Z,6.84
2023-01-15T20:23:19.334Z,6.85
2023-01-15T20:26:40.714Z,6.85
2023-01-15T20:30:02.901Z,6.87
2023-01-15T20:33:25.375Z,6.89
2023-01-15T20:36:46.698Z,6.90
2023-01-15T20:40:11.611Z,6.92
2023-01-15T20:43:51.371Z,6.92
2023-01-15T20:47:26.953Z,6.93
2023-01-15T20:51:00.854Z,6.98
2023-01-15T20:54:24.035Z,6.98
2023-01-15T20:57:47.552Z,7.01
2023-01-15T21:01:11.038Z,7.00
2023-01-15T21:04:32.958Z,7.00
2023-01-15T21:07:54.736Z,7.01
2023-01-15T21:11:16.431Z,7.01
2023-01-15T21:14:39.978Z,6.99
2023-01-15T21:18:01.775Z,6.96
2023-01-15T21:21:23.343Z,6.95
2023-01-15T21:24:46.715Z,6.95
2023-01-15T21:28:08.311Z,6.99
2023-01-15T21:31:31.155Z,7.00
2023-01-15T21:34:53.027Z,7.00
2023-01-15T21:38:14.921Z,6.99
2023-01-15T21:41:53.603Z,6.99
2023-01-15T21:45:15.127Z,6.94
2023-01-15T21:48:37.767Z,6.94
2023-01-15T21:51:59.983Z,6.93
2023-01-15T21:55:21.348Z,6.88
2023-01-15T21:58:43.087Z,6.86
2023-01-15T22:02:06.192Z,6.81
2023-01-15T22:05:29.251Z,6.82
2023-01-15T22:08:54.812Z,6.81
2023-01-15T22:12:16.260Z,6.80
2023-01-15T22:15:38.030Z,6.80
2023-01-15T22:18:59.966Z,6.83
2023-01-15T22:22:23.052Z,6.81
2023-01-15T22:25:46.084Z,6.77
2023-01-15T22:29:07.816Z,6.76
2023-01-15T22:32:29.308Z,6.76
2023-01-15T22:35:57.673Z,6.74
2023-01-15T22:39:21.960Z,6.71
2023-01-15T22:42:43.812Z,6.72
2023-01-15T22:46:12.549Z,6.68
2023-01-15T22:49:33.983Z,6.69
2023-01-15T22:52:56.472Z,6.64
2023-01-15T22:56:19.275Z,6.63
2023-01-15T22:59:40.974Z,6.61
2023-01-15T23:03:05.863Z,6.61
2023-01-15T23:06:28.657Z,6.63
2023-01-15T23:09:49.927Z,6.62
2023-01-15T23:13:13.522Z,6.62
2023-01-15T23:16:35.117Z,6.60
2023-01-15T23:19:56.462Z,6.59
2023-01-15T23:23:18.286Z,6.60
2023-01-15T23:26:40.974Z,6.60
2023-01-15T23:30:04.845Z,6.61
2023-01-15T23:33:27.081Z,6.61
2023-01-15T23:36:48.595Z,6.64
2023-01-15T23:40:11.629Z,6.66
2023-01-15T23:43:50.264Z,6.69
2023-01-15T23:47:13.417Z,6.69
2023-01-15T23:50:35.079Z,6.70
2023-01-15T23:53:56.533Z,6.71
2023-01-15T23:57:18.158Z,6.72
